createdAt,value
2019-03-19T00:02:15.945Z,83.00
2019-03-19T00:04:44.213Z,83.60
2019-03-19T00:07:12.847Z,84.30
2019-03-19T00:09:41.095Z,84.50
2019-03-19T00:12:09.546Z,84.70
2019-03-19T00:14:37.875Z,84.60
2019-03-19T00:17:06.594Z,84.30
2019-03-19T00:19:35.174Z,84.00
2019-03-19T00:22:03.468Z,84.20
2019-03-19T00:24:31.990Z,85.30
2019-03-19T00:27:00.525Z,83.80
2019-03-19T00:29:29.011Z,84.60
2019-03-19T00:31:57.332Z,84.80
2019-03-19T00:34:26.143Z,84.60
2019-03-19T00:36:54.641Z,84.50
2019-03-19T00:39:23.261Z,85.10
2019-03-19T00:41:51.836Z,86.00
2019-03-19T00:44:20.538Z,85.80
2019-03-19T00:46:49.229Z,87.70
2019-03-19T00:49:18.003Z,87.30
2019-03-19T00:51:49.037Z,87.90
2019-03-19T00:54:17.513Z,88.00
2019-03-19T00:56:48.859Z,87.70
2019-03-19T00:59:17.645Z,86.90
2019-03-19T01:01:46.320Z,87.30
2019-03-19T01:04:14.611Z,87.50
2019-03-19T01:06:43.132Z,87.60
2019-03-19T01:09:11.493Z,87.30
2019-03-19T01:11:40.090Z,87.00
2019-03-19T01:14:08.361Z,86.80
2019-03-19T01:16:36.746Z,86.20
2019-03-19T01:19:05.017Z,86.10
2019-03-19T01:21:33.478Z,86.00
2019-03-19T01:24:02.144Z,84.90
2019-03-19T01:26:31.178Z,86.00
2019-03-19T01:28:59.532Z,86.00
2019-03-19T01:31:27.791Z,86.40
2019-03-19T01:33:56.509Z,86.90
2019-03-19T01:36:24.909Z,87.50
2019-03-19T01:38:53.280Z,87.10
2019-03-19T01:41:21.749Z,87.10
2019-03-19T01:43:50.093Z,87.40
2019-03-19T01:46:18.354Z,87.70
2019-03-19T01:48:47.144Z,87.80
2019-03-19T01:51:15.698Z,87.60
2019-03-19T01:53:43.979Z,87.50
2019-03-19T01:56:12.249Z,87.80
2019-03-19T01:58:41.358Z,87.70
2019-03-19T02:01:09.677Z,87.50
2019-03-19T02:03:59.347Z,87.00
2019-03-19T02:06:27.726Z,86.60
2019-03-19T02:08:56.352Z,85.50
2019-03-19T02:11:24.811Z,85.70
2019-03-19T02:13:53.092Z,84.90
2019-03-19T02:16:21.422Z,84.70
2019-03-19T02:18:50.439Z,85.50
2019-03-19T02:21:20.815Z,84.90
2019-03-19T02:23:49.260Z,85.20
2019-03-19T02:26:17.587Z,85.40
2019-03-19T02:28:46.371Z,85.40
2019-03-19T02:31:14.622Z,85.70
2019-03-19T02:33:43.193Z,86.40
2019-03-19T02:36:11.552Z,86.00
2019-03-19T02:38:39.909Z,87.50
2019-03-19T02:41:08.237Z,86.30
2019-03-19T02:43:36.854Z,86.90
2019-03-19T02:46:05.095Z,86.70
2019-03-19T02:48:33.560Z,86.80
2019-03-19T02:51:02.004Z,86.90
2019-03-19T02:53:30.595Z,87.10
2019-03-19T02:55:59.330Z,86.90
2019-03-19T02:58:27.751Z,86.80
2019-03-19T03:00:56.853Z,87.30
2019-03-19T03:03:25.550Z,87.60
2019-03-19T03:05:53.991Z,87.80
2019-03-19T03:08:22.326Z,88.10
2019-03-19T03:10:50.623Z,87.70
2019-03-19T03:13:19.184Z,88.10
2019-03-19T03:15:48.016Z,87.60
2019-03-19T03:18:16.767Z,88.00
2019-03-19T03:20:45.290Z,88.10
2019-03-19T03:23:13.714Z,88.50
2019-03-19T03:25:42.066Z,88.50
2019-03-19T03:28:10.571Z,89.30
2019-03-19T03:30:38.945Z,89.90
2019-03-19T03:33:07.437Z,90.00
2019-03-19T03:35:36.473Z,89.60
2019-03-19T03:38:05.232Z,90.00
2019-03-19T03:40:33.702Z,90.20
2019-03-19T03:43:02.384Z,90.20
2019-03-19T03:45:30.867Z,90.20
2019-03-19T03:47:59.252Z,89.50
2019-03-19T03:50:28.200Z,90.00
2019-03-19T03:52:56.519Z,90.20
2019-03-19T03:55:25.153Z,90.20
2019-03-19T03:57:53.955Z,90.90
2019-03-19T04:00:23.672Z,90.50
2019-03-19T04:02:52.014Z,90.10
2019-03-19T04:05:20.372Z,90.10
2019-03-19T04:07:49.324Z,90.60
2019-03-19T04:10:18.553Z,90.70
2019-03-19T04:12:47.294Z,90.60
2019-03-19T04:15:22.799Z,90.50
2019-03-19T04:17:51.266Z,90.40
2019-03-19T04:20:19.594Z,90.60
2019-03-19T04:22:47.962Z,90.70
2019-03-19T04:25:16.363Z,90.30
2019-03-19T04:27:44.819Z,90.00
2019-03-19T04:30:20.767Z,90.10
2019-03-19T04:32:49.134Z,90.10
2019-03-19T04:35:17.794Z,90.20
2019-03-19T04:37:46.212Z,90.60
2019-03-19T04:40:15.378Z,90.50
2019-03-19T04:42:45.367Z,90.80
2019-03-19T04:45:14.869Z,90.50
2019-03-19T04:47:43.205Z,90.20
2019-03-19T04:50:12.548Z,90.60
2019-03-19T04:52:40.970Z,90.00
2019-03-19T04:55:16.587Z,89.90
2019-03-19T04:57:45.277Z,89.70
2019-03-19T05:00:16.180Z,90.20
2019-03-19T05:03:01.010Z,90.60
2019-03-19T05:05:52.662Z,89.20
2019-03-19T05:08:22.905Z,89.10
2019-03-19T05:10:58.466Z,90.10
2019-03-19T05:13:35.234Z,90.40
2019-03-19T05:16:03.010Z,91.10
2019-03-19T05:18:31.611Z,91.30
2019-03-19T05:21:00.522Z,91.10
2019-03-19T05:23:29.124Z,90.80
2019-03-19T05:25:57.513Z,90.90
2019-03-19T05:28:25.964Z,91.40
2019-03-19T05:31:00.692Z,90.50
2019-03-19T05:33:28.694Z,90.00
2019-03-19T05:36:00.225Z,90.00
2019-03-19T05:38:32.066Z,89.80
2019-03-19T05:41:00.620Z,89.60
2019-03-19T05:43:29.114Z,89.70
2019-03-19T05:45:57.815Z,89.70
2019-03-19T05:48:26.189Z,89.10
2019-03-19T05:50:54.635Z,87.20
2019-03-19T05:53:22.974Z,84.70
2019-03-19T05:55:51.336Z,82.70
2019-03-19T05:58:19.791Z,80.80
2019-03-19T06:00:48.142Z,78.20
2019-03-19T06:03:16.875Z,74.20
2019-03-19T06:05:45.089Z,70.10
2019-03-19T06:08:13.430Z,67.70
2019-03-19T06:10:42.874Z,63.40
2019-03-19T06:13:11.463Z,58.70
2019-03-19T06:15:40.029Z,55.60
2019-03-19T06:18:08.345Z,53.60
2019-03-19T06:20:36.630Z,54.60
2019-03-19T06:23:05.296Z,53.70
2019-03-19T06:25:34.750Z,52.30
2019-03-19T06:28:03.235Z,51.50
2019-03-19T06:30:31.738Z,50.80
2019-03-19T06:33:00.184Z,50.20
2019-03-19T06:35:28.628Z,50.40
2019-03-19T06:37:57.310Z,49.80
2019-03-19T06:40:25.702Z,49.70
2019-03-19T06:42:54.138Z,50.90
2019-03-19T06:45:23.176Z,49.70
2019-03-19T06:47:52.001Z,49.30
2019-03-19T06:50:20.978Z,49.30
2019-03-19T06:52:49.338Z,46.10
2019-03-19T06:55:21.084Z,43.90
2019-03-19T06:57:49.542Z,41.10
2019-03-19T07:00:18.783Z,41.30
2019-03-19T07:02:47.124Z,41.60
2019-03-19T07:05:16.734Z,42.90
2019-03-19T07:07:45.451Z,43.60
2019-03-19T07:10:15.809Z,44.20
2019-03-19T07:12:44.346Z,44.10
2019-03-19T07:15:18.958Z,44.10
2019-03-19T07:17:47.248Z,44.40
2019-03-19T07:20:22.988Z,44.30
2019-03-19T07:22:51.318Z,45.90
2019-03-19T07:25:20.848Z,46.90
2019-03-19T07:27:49.135Z,47.40
2019-03-19T07:30:20.948Z,50.10
2019-03-19T07:32:49.204Z,49.90
2019-03-19T07:35:17.672Z,49.80
2019-03-19T07:37:46.045Z,48.30
2019-03-19T07:40:15.921Z,49.40
2019-03-19T07:42:44.304Z,50.40
2019-03-19T07:45:14.757Z,49.90
2019-03-19T07:47:44.440Z,47.80
2019-03-19T07:50:17.935Z,47.30
2019-03-19T07:52:48.292Z,47.50
2019-03-19T07:55:16.701Z,47.30
2019-03-19T07:57:45.198Z,44.70
2019-03-19T08:00:20.219Z,42.80
2019-03-19T08:02:48.699Z,40.50
2019-03-19T08:05:17.169Z,39.60
2019-03-19T08:07:45.581Z,35.60
2019-03-19T08:10:16.150Z,34.90
2019-03-19T08:12:44.876Z,35.50
2019-03-19T08:15:14.771Z,34.80
2019-03-19T08:17:43.343Z,34.20
2019-03-19T08:20:16.994Z,33.40
2019-03-19T08:22:46.143Z,35.20
2019-03-19T08:25:15.359Z,36.20
2019-03-19T08:27:43.636Z,35.00
2019-03-19T08:30:17.077Z,33.70
2019-03-19T08:32:45.603Z,30.90
2019-03-19T08:35:14.491Z,28.80
2019-03-19T08:37:42.805Z,27.10
2019-03-19T08:40:13.575Z,26.80
2019-03-19T08:42:42.487Z,26.10
2019-03-19T08:45:21.784Z,26.70
2019-03-19T08:47:50.102Z,29.00
2019-03-19T08:50:21.145Z,29.10
2019-03-19T08:52:49.504Z,31.10
2019-03-19T08:55:17.842Z,34.30
2019-03-19T08:57:46.108Z,34.70
2019-03-19T09:00:20.963Z,36.60
2019-03-19T09:02:49.285Z,35.00
2019-03-19T09:05:17.636Z,31.40
2019-03-19T09:07:46.032Z,29.30
2019-03-19T09:10:18.501Z,27.20
2019-03-19T09:12:48.764Z,28.40
2019-03-19T09:15:28.359Z,28.70
2019-03-19T09:17:57.032Z,30.00
2019-03-19T09:20:25.403Z,30.10
2019-03-19T09:22:53.905Z,31.00
2019-03-19T09:25:22.321Z,31.70
2019-03-19T09:27:50.761Z,34.40
2019-03-19T09:30:21.178Z,34.70
2019-03-19T09:32:49.566Z,37.50
2019-03-19T09:35:18.004Z,37.40
2019-03-19T09:37:57.685Z,38.40
2019-03-19T09:40:17.939Z,39.50
2019-03-19T09:42:46.191Z,41.30
2019-03-19T09:45:18.041Z,40.60
2019-03-19T09:47:46.766Z,40.90
2019-03-19T09:50:17.743Z,39.20
2019-03-19T09:52:46.125Z,39.60
2019-03-19T09:55:14.656Z,40.40
2019-03-19T09:57:43.253Z,41.30
2019-03-19T10:00:19.625Z,42.80
2019-03-19T10:02:48.171Z,44.70
2019-03-19T10:05:16.603Z,44.70
2019-03-19T10:07:45.371Z,44.10
2019-03-19T10:10:21.565Z,42.60
2019-03-19T10:12:50.016Z,43.00
2019-03-19T10:15:18.742Z,42.30
2019-03-19T10:17:49.870Z,41.60
2019-03-19T10:20:19.494Z,43.60
2019-03-19T10:22:47.933Z,45.00
2019-03-19T10:25:16.699Z,45.40
2019-03-19T10:27:44.998Z,46.50
2019-03-19T10:30:19.992Z,46.30
2019-03-19T10:32:48.225Z,44.80
2019-03-19T10:35:16.892Z,44.00
2019-03-19T10:37:45.326Z,43.90
2019-03-19T10:40:16.862Z,43.70
2019-03-19T10:42:45.524Z,42.50
2019-03-19T10:45:24.307Z,43.70
2019-03-19T10:47:52.836Z,41.10
2019-03-19T10:50:28.099Z,37.70
2019-03-19T10:52:57.075Z,34.30
2019-03-19T10:55:25.543Z,30.30
2019-03-19T10:57:54.452Z,28.90
2019-03-19T11:00:26.839Z,31.50
2019-03-19T11:02:55.174Z,32.10
2019-03-19T11:05:24.446Z,31.70
2019-03-19T11:07:53.025Z,30.30
2019-03-19T11:10:21.386Z,27.70
2019-03-19T11:12:49.806Z,28.30
2019-03-19T11:15:22.917Z,28.50
2019-03-19T11:17:51.269Z,29.20
2019-03-19T11:20:20.316Z,29.10
2019-03-19T11:22:49.007Z,29.50
2019-03-19T11:25:24.895Z,32.40
2019-03-19T11:27:53.209Z,31.60
2019-03-19T11:30:23.108Z,30.70
2019-03-19T11:32:51.523Z,30.10
2019-03-19T11:35:20.052Z,28.40
2019-03-19T11:37:49.018Z,26.30
2019-03-19T11:40:18.204Z,26.70
2019-03-19T11:42:46.867Z,26.80
2019-03-19T11:45:23.259Z,27.40
2019-03-19T11:47:51.701Z,25.70
2019-03-19T11:50:24.571Z,26.40
2019-03-19T11:52:52.951Z,26.20
2019-03-19T11:55:21.232Z,27.70
2019-03-19T11:57:49.976Z,29.10
2019-03-19T12:00:43.774Z,30.60
2019-03-19T12:03:16.181Z,30.90
2019-03-19T12:05:42.381Z,32.40
2019-03-19T12:08:10.955Z,34.00
2019-03-19T12:10:39.253Z,34.80
2019-03-19T12:13:07.641Z,36.10
2019-03-19T12:15:36.159Z,36.20
2019-03-19T12:18:05.287Z,37.70
2019-03-19T12:20:33.759Z,39.80
2019-03-19T12:23:02.329Z,39.80
2019-03-19T12:25:31.322Z,41.20
2019-03-19T12:28:00.292Z,40.70
2019-03-19T12:30:28.674Z,41.50
2019-03-19T12:32:57.133Z,41.70
2019-03-19T12:35:25.393Z,41.80
2019-03-19T12:37:53.707Z,41.50
2019-03-19T12:40:23.205Z,41.50
2019-03-19T12:42:51.595Z,43.20
2019-03-19T12:45:24.083Z,43.10
2019-03-19T12:47:52.496Z,45.20
2019-03-19T12:50:22.155Z,43.50
2019-03-19T12:52:53.354Z,43.70
2019-03-19T12:55:21.935Z,43.20
2019-03-19T12:57:50.377Z,44.70
2019-03-19T13:00:34.221Z,43.00
2019-03-19T13:02:56.007Z,42.50
2019-03-19T13:05:24.370Z,41.00
2019-03-19T13:07:54.230Z,40.80
2019-03-19T13:10:24.499Z,41.20
2019-03-19T13:12:53.797Z,41.40
2019-03-19T13:15:22.354Z,39.60
2019-03-19T13:17:53.504Z,39.60
2019-03-19T13:20:25.652Z,40.20
2019-03-19T13:22:54.231Z,40.70
2019-03-19T13:25:24.675Z,41.50
2019-03-19T13:27:56.113Z,43.30
2019-03-19T13:30:28.526Z,42.20
2019-03-19T13:32:57.193Z,43.10
2019-03-19T13:35:25.785Z,42.90
2019-03-19T13:37:54.848Z,43.40
2019-03-19T13:40:23.547Z,43.40
2019-03-19T13:42:51.875Z,42.20
2019-03-19T13:45:21.371Z,42.40
2019-03-19T13:47:49.760Z,42.90
2019-03-19T13:50:18.920Z,43.90
2019-03-19T13:52:47.474Z,43.10
2019-03-19T13:55:20.131Z,44.90
2019-03-19T13:57:48.720Z,45.20
2019-03-19T14:00:17.716Z,47.30
2019-03-19T14:02:46.197Z,46.70
2019-03-19T14:05:15.176Z,47.60
2019-03-19T14:07:43.650Z,48.90
2019-03-19T14:10:16.839Z,48.50
2019-03-19T14:12:45.410Z,47.20
2019-03-19T14:15:17.115Z,47.80
2019-03-19T14:17:59.815Z,49.60
2019-03-19T14:20:28.280Z,49.40
2019-03-19T14:22:56.674Z,48.60
2019-03-19T14:25:25.024Z,50.00
2019-03-19T14:27:53.583Z,49.50
2019-03-19T14:30:22.985Z,46.20
2019-03-19T14:32:51.329Z,46.40
2019-03-19T14:35:19.685Z,45.60
2019-03-19T14:37:48.412Z,45.50
2019-03-19T14:40:20.798Z,43.40
2019-03-19T14:42:49.163Z,45.30
2019-03-19T14:45:17.719Z,46.30
2019-03-19T14:47:46.057Z,46.70
2019-03-19T14:50:20.614Z,45.70
2019-03-19T14:52:48.960Z,46.40
2019-03-19T14:55:17.532Z,46.40
2019-03-19T14:57:46.044Z,46.50
2019-03-19T15:00:21.921Z,47.10
2019-03-19T15:02:50.420Z,47.40
2019-03-19T15:05:24.125Z,47.40
2019-03-19T15:07:52.460Z,49.10
2019-03-19T15:10:24.105Z,48.40
2019-03-19T15:12:52.459Z,47.50
2019-03-19T15:15:21.745Z,47.90
2019-03-19T15:17:50.088Z,48.70
2019-03-19T15:20:21.751Z,48.90
2019-03-19T15:22:50.086Z,48.80
2019-03-19T15:25:18.448Z,47.80
2019-03-19T15:27:46.823Z,48.70
2019-03-19T15:30:19.429Z,48.70
2019-03-19T15:32:47.728Z,49.30
2019-03-19T15:35:17.716Z,49.60
2019-03-19T15:37:46.110Z,50.70
2019-03-19T15:40:17.458Z,50.90
2019-03-19T15:42:49.556Z,51.00
2019-03-19T15:45:30.544Z,51.70
2019-03-19T15:47:58.832Z,50.90
2019-03-19T15:50:27.126Z,52.00
2019-03-19T15:52:55.827Z,51.70
2019-03-19T15:55:24.464Z,52.20
2019-03-19T15:57:52.931Z,52.30
2019-03-19T16:00:21.773Z,52.50
2019-03-19T16:02:50.093Z,52.60
2019-03-19T16:05:18.366Z,53.20
2019-03-19T16:07:46.737Z,53.50
2019-03-19T16:10:16.218Z,53.60
2019-03-19T16:12:44.484Z,54.70
2019-03-19T16:15:15.397Z,54.80
2019-03-19T16:17:43.722Z,54.80
2019-03-19T16:20:17.004Z,55.20
2019-03-19T16:22:45.396Z,55.40
2019-03-19T16:25:13.751Z,55.90
2019-03-19T16:27:42.061Z,56.30
2019-03-19T16:30:24.524Z,56.70
2019-03-19T16:32:52.868Z,57.30
2019-03-19T16:35:21.145Z,56.30
2019-03-19T16:37:49.525Z,56.00
2019-03-19T16:40:20.075Z,56.30
2019-03-19T16:42:48.512Z,56.50
2019-03-19T16:45:18.281Z,57.20
2019-03-19T16:47:46.124Z,58.10
2019-03-19T16:50:16.133Z,58.20
2019-03-19T16:52:43.792Z,56.50
2019-03-19T16:55:16.906Z,57.50
2019-03-19T16:57:46.547Z,57.20
2019-03-19T17:00:23.800Z,57.40
2019-03-19T17:02:52.174Z,58.20
2019-03-19T17:05:20.488Z,58.80
2019-03-19T17:07:48.770Z,59.10
2019-03-19T17:10:20.570Z,59.70
2019-03-19T17:12:48.928Z,60.00
2019-03-19T17:15:17.375Z,59.60
2019-03-19T17:17:46.030Z,59.00
2019-03-19T17:20:18.333Z,60.00
2019-03-19T17:22:47.000Z,59.40
2019-03-19T17:25:18.963Z,59.30
2019-03-19T17:27:57.162Z,59.80
2019-03-19T17:30:38.146Z,60.00
2019-03-19T17:33:06.472Z,59.10
2019-03-19T17:35:35.099Z,60.40
2019-03-19T17:38:03.681Z,59.30
2019-03-19T17:40:40.858Z,59.10
2019-03-19T17:43:02.694Z,59.70
2019-03-19T17:45:31.099Z,58.80
2019-03-19T17:47:59.511Z,58.40
2019-03-19T17:50:30.541Z,56.20
2019-03-19T17:52:59.069Z,54.80
2019-03-19T17:55:27.433Z,56.20
2019-03-19T17:57:56.412Z,56.20
2019-03-19T18:00:35.997Z,57.00
2019-03-19T18:03:10.965Z,55.60
2019-03-19T18:05:38.751Z,57.00
2019-03-19T18:08:07.101Z,58.80
2019-03-19T18:10:35.761Z,60.70
2019-03-19T18:13:06.463Z,62.10
2019-03-19T18:15:34.330Z,61.20
2019-03-19T18:18:03.682Z,63.50
2019-03-19T18:20:31.968Z,65.50
2019-03-19T18:23:00.392Z,65.90
2019-03-19T18:25:28.797Z,65.50
2019-03-19T18:27:57.372Z,65.60
2019-03-19T18:30:26.166Z,65.10
2019-03-19T18:32:54.537Z,65.00
2019-03-19T18:35:22.811Z,65.20
2019-03-19T18:37:51.069Z,65.00
2019-03-19T18:40:20.152Z,64.60
2019-03-19T18:42:48.579Z,62.10
2019-03-19T18:45:20.531Z,62.30
2019-03-19T18:47:48.818Z,62.70
2019-03-19T18:50:21.082Z,61.20
2019-03-19T18:52:49.375Z,64.00
2019-03-19T18:55:17.826Z,65.80
2019-03-19T18:57:46.570Z,66.10
2019-03-19T19:00:18.826Z,64.70
2019-03-19T19:02:50.053Z,63.00
2019-03-19T19:05:37.018Z,63.90
2019-03-19T19:07:53.303Z,63.60
2019-03-19T19:10:23.668Z,64.20
2019-03-19T19:12:52.054Z,65.10
2019-03-19T19:15:24.217Z,65.40
2019-03-19T19:17:52.621Z,64.40
2019-03-19T19:20:21.102Z,60.00
2019-03-19T19:22:52.447Z,62.00
2019-03-19T19:25:26.077Z,64.10
2019-03-19T19:27:54.467Z,67.40
2019-03-19T19:30:23.973Z,64.70
2019-03-19T19:33:00.973Z,63.50
2019-03-19T19:35:22.773Z,64.40
2019-03-19T19:37:52.026Z,63.50
2019-03-19T19:40:20.795Z,67.50
2019-03-19T19:42:49.306Z,68.70
2019-03-19T19:45:18.635Z,68.50
2019-03-19T19:47:47.172Z,67.20
2019-03-19T19:50:19.658Z,67.70
2019-03-19T19:52:48.644Z,67.00
2019-03-19T19:55:17.093Z,66.10
2019-03-19T19:57:45.481Z,67.50
2019-03-19T20:00:18.826Z,65.10
2019-03-19T20:02:47.208Z,65.60
2019-03-19T20:05:15.677Z,62.90
2019-03-19T20:07:45.789Z,62.90
2019-03-19T20:10:20.326Z,67.20
2019-03-19T20:12:48.749Z,67.40
2019-03-19T20:15:17.036Z,66.00
2019-03-19T20:17:45.365Z,64.40
2019-03-19T20:20:16.042Z,63.80
2019-03-19T20:22:46.992Z,67.00
2019-03-19T20:25:15.570Z,68.10
2019-03-19T20:27:43.914Z,67.20
2019-03-19T20:30:21.247Z,68.70
2019-03-19T20:32:49.558Z,67.20
2019-03-19T20:35:17.967Z,66.30
2019-03-19T20:37:46.677Z,65.00
2019-03-19T20:40:16.114Z,64.30
2019-03-19T20:42:45.107Z,64.20
2019-03-19T20:45:15.867Z,64.70
2019-03-19T20:47:44.174Z,63.60
2019-03-19T20:50:24.507Z,62.30
2019-03-19T20:52:54.971Z,61.20
2019-03-19T20:55:23.782Z,61.10
2019-03-19T20:57:53.251Z,60.80
2019-03-19T21:00:26.162Z,61.10
2019-03-19T21:02:54.654Z,61.30
2019-03-19T21:05:22.993Z,60.50
2019-03-19T21:07:57.260Z,64.20
2019-03-19T21:10:25.773Z,64.90
2019-03-19T21:12:54.186Z,66.40
2019-03-19T21:15:27.148Z,67.10
2019-03-19T21:17:55.505Z,72.70
2019-03-19T21:20:23.985Z,75.10
2019-03-19T21:22:52.696Z,75.10
2019-03-19T21:25:21.071Z,73.60
2019-03-19T21:27:49.830Z,71.80
2019-03-19T21:30:21.084Z,72.90
2019-03-19T21:32:50.255Z,74.00
2019-03-19T21:35:23.556Z,70.40
2019-03-19T21:37:51.975Z,65.70
2019-03-19T21:40:20.450Z,66.30
2019-03-19T21:42:52.953Z,67.80
2019-03-19T21:45:22.263Z,66.40
2019-03-19T21:47:50.792Z,66.90
2019-03-19T21:50:23.395Z,66.00
2019-03-19T21:52:52.326Z,67.40
2019-03-19T21:55:20.670Z,69.50
2019-03-19T21:57:49.099Z,71.00
2019-03-19T22:00:27.333Z,72.40
2019-03-19T22:02:55.609Z,73.70
2019-03-19T22:05:24.069Z,74.10
2019-03-19T22:07:52.351Z,74.40
2019-03-19T22:10:27.225Z,76.70
2019-03-19T22:12:55.585Z,75.00
2019-03-19T22:15:25.839Z,75.40
2019-03-19T22:17:54.567Z,75.00
2019-03-19T22:20:25.694Z,74.90
2019-03-19T22:22:54.503Z,75.00
2019-03-19T22:25:23.356Z,76.00
2019-03-19T22:27:51.794Z,75.30
2019-03-19T22:30:21.042Z,75.30
2019-03-19T22:32:49.390Z,73.90
2019-03-19T22:35:17.842Z,73.80
2019-03-19T22:37:46.389Z,74.10
2019-03-19T22:40:18.553Z,74.50
2019-03-19T22:42:46.959Z,74.40
2019-03-19T22:45:16.243Z,73.00
2019-03-19T22:47:44.585Z,73.90
2019-03-19T22:50:17.044Z,74.00
2019-03-19T22:52:45.663Z,73.80
2019-03-19T22:55:14.928Z,74.10
2019-03-19T22:57:43.274Z,74.20
2019-03-19T23:00:27.116Z,75.30
2019-03-19T23:02:55.582Z,74.00
2019-03-19T23:05:23.963Z,74.60
2019-03-19T23:07:53.323Z,75.00
2019-03-19T23:10:21.885Z,75.10
2019-03-19T23:12:50.318Z,75.10
2019-03-19T23:15:18.744Z,76.00
2019-03-19T23:17:47.485Z,76.00
2019-03-19T23:20:15.804Z,77.00
2019-03-19T23:22:44.276Z,77.00
2019-03-19T23:25:12.918Z,77.40
2019-03-19T23:27:41.299Z,78.20
2019-03-19T23:30:12.848Z,79.10
2019-03-19T23:32:41.353Z,78.80
2019-03-19T23:35:09.720Z,78.40
2019-03-19T23:37:38.264Z,78.80
2019-03-19T23:40:10.361Z,78.80
2019-03-19T23:42:38.730Z,79.70
2019-03-19T23:45:10.719Z,79.50
2019-03-19T23:47:39.094Z,79.30
2019-03-19T23:50:14.569Z,80.40
2019-03-19T23:52:43.353Z,78.90
2019-03-19T23:55:12.135Z,78.90
2019-03-19T23:57:40.925Z,78.90
